This is the latest recevied weather packets stored in our database for station/object 5B4APJ-13. If no packets are shown the sender has not sent any weather packets the latest 10 day(s).
| Time | Temp. | Humidity | Pressure | Rain* | Wind** | Luminosity | Snow |
|---|---|---|---|---|---|---|---|
| 1777605426 | 12.78° C | 72% | 1013.2 hPa | 0 mm | 0.89 m/s, 264° | 19 W/m² | - |
| 1777605126 | 12.78° C | 72% | 1013.1 hPa | 0 mm | 1.34 m/s, 260° | 14 W/m² | - |
| 1777604826 | 13.89° C | 69% | 1013.1 hPa | 0 mm | 1.79 m/s, 246° | 10 W/m² | - |
| 1777604526 | 14.44° C | 67% | 1012.9 hPa | 0 mm | 0.45 m/s, 235° | 7 W/m² | - |
| 1777604226 | 14.44° C | 66% | 1013 hPa | 0 mm | 0.45 m/s, 159° | 4 W/m² | - |
| 1777603927 | 14.44° C | 66% | 1012.9 hPa | 0 mm | 0.45 m/s, 166° | 2 W/m² | - |
| 1777603627 | 14.44° C | 67% | 1013 hPa | 0 mm | 0.89 m/s, 175° | 1 W/m² | - |
| 1777603327 | 14.44° C | 68% | 1013.1 hPa | 0 mm | 0.89 m/s, 162° | 0 W/m² | - |
| 1777603026 | 13.89° C | 68% | 1012.9 hPa | 0 mm | 0.89 m/s, 200° | 0 W/m² | - |
| 1777602727 | 13.33° C | 67% | 1012.9 hPa | 0 mm | 0.45 m/s, 238° | 0 W/m² | - |
| 1777602427 | 12.78° C | 67% | 1013 hPa | 0 mm | 0 m/s | 0 W/m² | - |
| 1777602127 | 12.78° C | 66% | 1012.9 hPa | 0 mm | 1.34 m/s, 241° | 0 W/m² | - |
| 1777601827 | 12.78° C | 66% | 1013.1 hPa | 0 mm | 0.45 m/s, 246° | 0 W/m² | - |
| 1777601527 | 12.78° C | 67% | 1012.9 hPa | 0 mm | 0.45 m/s, 228° | 0 W/m² | - |
| 1777601227 | 12.78° C | 67% | 1012.9 hPa | 0 mm | 0 m/s | 0 W/m² | - |
| 1777600926 | 12.78° C | 66% | 1012.9 hPa | 0 mm | 0.45 m/s, 214° | 0 W/m² | - |
| 1777600626 | 13.33° C | 66% | 1012.7 hPa | 0 mm | 1.34 m/s, 246° | 0 W/m² | - |
| 1777600327 | 14.44° C | 62% | 1012.8 hPa | 0 mm | 0.45 m/s, 231° | 0 W/m² | - |
| 1777600027 | 14.44° C | 60% | 1012.8 hPa | 0 mm | 0.89 m/s, 232° | 0 W/m² | - |
| 1777599727 | 14.44° C | 60% | 1012.9 hPa | 0 mm | 1.34 m/s, 251° | 0 W/m² | - |
| 1777599427 | 13.89° C | 61% | 1012.8 hPa | 0 mm | 1.34 m/s, 236° | 0 W/m² | - |
| 1777599127 | 13.33° C | 64% | 1013 hPa | 0 mm | 0.89 m/s, 238° | 0 W/m² | - |
| 1777598827 | 14.44° C | 62% | 1012.8 hPa | 0 mm | 0.45 m/s, 242° | 0 W/m² | - |
| 1777598527 | 14.44° C | 61% | 1012.8 hPa | 0 mm | 0.89 m/s, 242° | 0 W/m² | - |
| 1777598227 | 13.33° C | 64% | 1013 hPa | 0 mm | 1.34 m/s, 251° | 0 W/m² | - |
* Rain latest hour (hover to see other rain measurements)
** Current wind speed in m/s (hover to see current wind gust speed)